sensor_id;sensor_type;location;lat;lon;timestamp;temperature;humidity
24085;DHT22;12268;52.110;5.548;2023-02-15T00:01:39;5.00;99.90
24085;DHT22;12268;52.110;5.548;2023-02-15T00:04:05;5.10;99.90
24085;DHT22;12268;52.110;5.548;2023-02-15T00:06:30;5.00;99.90
24085;DHT22;12268;52.110;5.548;2023-02-15T00:08:56;4.90;99.90
24085;DHT22;12268;52.110;5.548;2023-02-15T00:11:21;4.80;99.90
24085;DHT22;12268;52.110;5.548;2023-02-15T00:16:34;4.70;99.90
24085;DHT22;12268;52.110;5.548;2023-02-15T00:18:59;4.20;99.90
24085;DHT22;12268;52.110;5.548;2023-02-15T00:21:27;3.80;99.90
24085;DHT22;12268;52.110;5.548;2023-02-15T00:23:53;3.70;99.90
24085;DHT22;12268;52.110;5.548;2023-02-15T00:26:19;4.00;99.90
24085;DHT22;12268;52.110;5.548;2023-02-15T00:28:44;3.70;99.90
24085;DHT22;12268;52.110;5.548;2023-02-15T00:31:10;3.90;99.90
24085;DHT22;12268;52.110;5.548;2023-02-15T00:33:36;4.20;99.90
24085;DHT22;12268;52.110;5.548;2023-02-15T00:36:02;4.40;99.90
24085;DHT22;12268;52.110;5.548;2023-02-15T00:38:28;4.60;99.90
24085;DHT22;12268;52.110;5.548;2023-02-15T00:40:54;4.70;99.90
24085;DHT22;12268;52.110;5.548;2023-02-15T00:43:20;4.90;99.90
24085;DHT22;12268;52.110;5.548;2023-02-15T00:45:46;4.80;99.90
24085;DHT22;12268;52.110;5.548;2023-02-15T00:48:11;4.70;99.90
24085;DHT22;12268;52.110;5.548;2023-02-15T00:50:37;4.70;99.90
24085;DHT22;12268;52.110;5.548;2023-02-15T00:53:02;4.90;99.90
24085;DHT22;12268;52.110;5.548;2023-02-15T00:55:28;5.10;99.90
24085;DHT22;12268;52.110;5.548;2023-02-15T00:57:53;5.10;99.90
24085;DHT22;12268;52.110;5.548;2023-02-15T01:00:19;4.80;99.90
24085;DHT22;12268;52.110;5.548;2023-02-15T01:02:44;4.50;99.90
24085;DHT22;12268;52.110;5.548;2023-02-15T01:05:09;4.20;99.90
24085;DHT22;12268;52.110;5.548;2023-02-15T01:07:35;4.20;99.90
24085;DHT22;12268;52.110;5.548;2023-02-15T01:10:00;4.40;99.90
24085;DHT22;12268;52.110;5.548;2023-02-15T01:12:26;4.60;99.90
24085;DHT22;12268;52.110;5.548;2023-02-15T01:14:51;4.60;99.90
24085;DHT22;12268;52.110;5.548;2023-02-15T01:17:17;4.70;99.90
24085;DHT22;12268;52.110;5.548;2023-02-15T01:19:42;4.70;99.90
24085;DHT22;12268;52.110;5.548;2023-02-15T01:22:08;4.70;99.90
24085;DHT22;12268;52.110;5.548;2023-02-15T01:24:33;4.70;99.90
24085;DHT22;12268;52.110;5.548;2023-02-15T01:26:59;4.80;99.90
24085;DHT22;12268;52.110;5.548;2023-02-15T01:29:24;4.80;99.90
24085;DHT22;12268;52.110;5.548;2023-02-15T01:31:50;4.80;99.90
24085;DHT22;12268;52.110;5.548;2023-02-15T01:34:15;4.70;99.90
24085;DHT22;12268;52.110;5.548;2023-02-15T01:36:40;4.60;99.90
24085;DHT22;12268;52.110;5.548;2023-02-15T01:39:06;4.60;99.90
24085;DHT22;12268;52.110;5.548;2023-02-15T01:41:33;4.60;99.90
24085;DHT22;12268;52.110;5.548;2023-02-15T01:43:59;4.60;99.90
24085;DHT22;12268;52.110;5.548;2023-02-15T01:46:33;4.50;99.90
24085;DHT22;12268;52.110;5.548;2023-02-15T01:49:01;4.50;99.90
24085;DHT22;12268;52.110;5.548;2023-02-15T01:51:27;4.60;99.90
24085;DHT22;12268;52.110;5.548;2023-02-15T01:53:57;4.50;99.90
24085;DHT22;12268;52.110;5.548;2023-02-15T01:56:25;4.40;99.90
24085;DHT22;12268;52.110;5.548;2023-02-15T01:58:53;4.50;99.90
24085;DHT22;12268;52.110;5.548;2023-02-15T02:01:20;4.50;99.90
24085;DHT22;12268;52.110;5.548;2023-02-15T02:06:11;4.40;99.90
24085;DHT22;12268;52.110;5.548;2023-02-15T02:08:37;4.30;99.90
24085;DHT22;12268;52.110;5.548;2023-02-15T02:11:04;4.30;99.90
24085;DHT22;12268;52.110;5.548;2023-02-15T02:13:34;4.40;99.90
24085;DHT22;12268;52.110;5.548;2023-02-15T02:18:41;4.50;99.90
24085;DHT22;12268;52.110;5.548;2023-02-15T02:23:43;4.50;99.90
24085;DHT22;12268;52.110;5.548;2023-02-15T02:29:19;4.50;99.90
24085;DHT22;12268;52.110;5.548;2023-02-15T02:31:53;4.40;99.90
24085;DHT22;12268;52.110;5.548;2023-02-15T02:34:30;4.30;99.90
24085;DHT22;12268;52.110;5.548;2023-02-15T02:36:58;4.30;99.90
24085;DHT22;12268;52.110;5.548;2023-02-15T02:41:55;4.40;99.90
24085;DHT22;12268;52.110;5.548;2023-02-15T02:46:55;4.40;99.90
24085;DHT22;12268;52.110;5.548;2023-02-15T02:49:30;4.30;99.90
24085;DHT22;12268;52.110;5.548;2023-02-15T02:51:59;4.30;99.90
24085;DHT22;12268;52.110;5.548;2023-02-15T02:54:25;4.30;99.90
24085;DHT22;12268;52.110;5.548;2023-02-15T02:56:51;4.30;99.90
24085;DHT22;12268;52.110;5.548;2023-02-15T02:59:19;4.30;99.90
24085;DHT22;12268;52.110;5.548;2023-02-15T03:01:50;4.20;99.90
24085;DHT22;12268;52.110;5.548;2023-02-15T03:04:28;4.30;99.90
24085;DHT22;12268;52.110;5.548;2023-02-15T03:07:00;4.30;99.90
24085;DHT22;12268;52.110;5.548;2023-02-15T03:09:28;4.40;99.90
24085;DHT22;12268;52.110;5.548;2023-02-15T03:12:07;4.40;99.90
24085;DHT22;12268;52.110;5.548;2023-02-15T03:14:33;4.50;99.90
24085;DHT22;12268;52.110;5.548;2023-02-15T03:16:59;4.50;99.90
24085;DHT22;12268;52.110;5.548;2023-02-15T03:19:26;4.50;99.90
24085;DHT22;12268;52.110;5.548;2023-02-15T03:22:00;4.40;99.90
24085;DHT22;12268;52.110;5.548;2023-02-15T03:26:59;4.50;99.90
24085;DHT22;12268;52.110;5.548;2023-02-15T03:29:28;4.40;99.90
24085;DHT22;12268;52.110;5.548;2023-02-15T03:31:56;4.40;99.90
24085;DHT22;12268;52.110;5.548;2023-02-15T03:34:24;4.50;99.90
24085;DHT22;12268;52.110;5.548;2023-02-15T03:36:58;4.20;99.90
24085;DHT22;12268;52.110;5.548;2023-02-15T03:41:58;4.20;99.90
24085;DHT22;12268;52.110;5.548;2023-02-15T03:44:30;4.30;99.90
24085;DHT22;12268;52.110;5.548;2023-02-15T03:47:00;4.30;99.90
24085;DHT22;12268;52.110;5.548;2023-02-15T03:52:05;4.30;99.90
24085;DHT22;12268;52.110;5.548;2023-02-15T03:54:31;4.40;99.90
24085;DHT22;12268;52.110;5.548;2023-02-15T03:57:09;4.40;99.90
24085;DHT22;12268;52.110;5.548;2023-02-15T03:59:54;4.40;99.90
24085;DHT22;12268;52.110;5.548;2023-02-15T04:02:39;4.20;99.90
24085;DHT22;12268;52.110;5.548;2023-02-15T04:05:05;4.20;99.90
24085;DHT22;12268;52.110;5.548;2023-02-15T04:07:30;4.30;99.90
24085;DHT22;12268;52.110;5.548;2023-02-15T04:09:56;4.20;99.90
24085;DHT22;12268;52.110;5.548;2023-02-15T04:12:40;4.20;99.90
24085;DHT22;12268;52.110;5.548;2023-02-15T04:15:05;4.30;99.90
24085;DHT22;12268;52.110;5.548;2023-02-15T04:17:50;4.20;99.90
24085;DHT22;12268;52.110;5.548;2023-02-15T04:20:15;4.10;99.90
24085;DHT22;12268;52.110;5.548;2023-02-15T04:22:59;4.10;99.90
24085;DHT22;12268;52.110;5.548;2023-02-15T04:25:43;3.90;99.90
24085;DHT22;12268;52.110;5.548;2023-02-15T04:28:09;4.00;99.90
24085;DHT22;12268;52.110;5.548;2023-02-15T04:30:34;4.00;99.90
24085;DHT22;12268;52.110;5.548;2023-02-15T04:33:00;4.00;99.90
24085;DHT22;12268;52.110;5.548;2023-02-15T04:35:26;4.00;99.90
24085;DHT22;12268;52.110;5.548;2023-02-15T04:37:51;4.00;99.90
24085;DHT22;12268;52.110;5.548;2023-02-15T04:40:17;4.00;99.90
24085;DHT22;12268;52.110;5.548;2023-02-15T04:42:42;4.00;99.90
24085;DHT22;12268;52.110;5.548;2023-02-15T04:45:08;4.10;99.90
24085;DHT22;12268;52.110;5.548;2023-02-15T04:47:33;4.10;99.90
24085;DHT22;12268;52.110;5.548;2023-02-15T04:49:59;3.90;99.90
24085;DHT22;12268;52.110;5.548;2023-02-15T04:52:24;3.90;99.90
24085;DHT22;12268;52.110;5.548;2023-02-15T04:54:50;3.90;99.90
24085;DHT22;12268;52.110;5.548;2023-02-15T04:57:15;3.90;99.90
24085;DHT22;12268;52.110;5.548;2023-02-15T04:59:41;4.10;99.90
24085;DHT22;12268;52.110;5.548;2023-02-15T05:02:06;4.10;99.90
24085;DHT22;12268;52.110;5.548;2023-02-15T05:04:32;4.10;99.90
24085;DHT22;12268;52.110;5.548;2023-02-15T05:06:57;4.20;99.90
24085;DHT22;12268;52.110;5.548;2023-02-15T05:09:23;4.20;99.90
24085;DHT22;12268;52.110;5.548;2023-02-15T05:11:48;4.20;99.90
24085;DHT22;12268;52.110;5.548;2023-02-15T05:14:14;3.60;99.90
24085;DHT22;12268;52.110;5.548;2023-02-15T05:16:39;3.40;99.90
24085;DHT22;12268;52.110;5.548;2023-02-15T05:19:04;3.60;99.90
24085;DHT22;12268;52.110;5.548;2023-02-15T05:21:31;3.70;99.90
24085;DHT22;12268;52.110;5.548;2023-02-15T05:23:56;3.80;99.90
24085;DHT22;12268;52.110;5.548;2023-02-15T05:26:22;3.80;99.90
24085;DHT22;12268;52.110;5.548;2023-02-15T05:29:07;3.90;99.90
24085;DHT22;12268;52.110;5.548;2023-02-15T05:31:33;4.00;99.90
24085;DHT22;12268;52.110;5.548;2023-02-15T05:33:58;3.90;99.90
24085;DHT22;12268;52.110;5.548;2023-02-15T05:36:24;4.00;99.90
24085;DHT22;12268;52.110;5.548;2023-02-15T05:38:49;3.90;99.90
24085;DHT22;12268;52.110;5.548;2023-02-15T05:41:15;3.90;99.90
24085;DHT22;12268;52.110;5.548;2023-02-15T05:43:40;3.90;99.90
24085;DHT22;12268;52.110;5.548;2023-02-15T05:46:06;3.90;99.90
24085;DHT22;12268;52.110;5.548;2023-02-15T05:48:32;3.90;99.90
24085;DHT22;12268;52.110;5.548;2023-02-15T05:51:02;3.90;99.90
24085;DHT22;12268;52.110;5.548;2023-02-15T05:53:28;4.00;99.90
24085;DHT22;12268;52.110;5.548;2023-02-15T05:55:54;4.10;99.90
24085;DHT22;12268;52.110;5.548;2023-02-15T05:58:24;4.10;99.90
24085;DHT22;12268;52.110;5.548;2023-02-15T06:00:50;4.10;99.90
24085;DHT22;12268;52.110;5.548;2023-02-15T06:03:16;4.10;99.90
24085;DHT22;12268;52.110;5.548;2023-02-15T06:05:41;4.10;99.90
24085;DHT22;12268;52.110;5.548;2023-02-15T06:08:07;4.20;99.90
24085;DHT22;12268;52.110;5.548;2023-02-15T06:10:32;4.20;99.90
24085;DHT22;12268;52.110;5.548;2023-02-15T06:12:57;4.30;99.90
24085;DHT22;12268;52.110;5.548;2023-02-15T06:15:23;4.30;99.90
24085;DHT22;12268;52.110;5.548;2023-02-15T06:17:48;4.40;99.90
24085;DHT22;12268;52.110;5.548;2023-02-15T06:20:14;4.50;99.90
24085;DHT22;12268;52.110;5.548;2023-02-15T06:22:41;4.40;99.90
24085;DHT22;12268;52.110;5.548;2023-02-15T06:25:06;4.40;99.90
24085;DHT22;12268;52.110;5.548;2023-02-15T06:27:35;4.30;99.90
24085;DHT22;12268;52.110;5.548;2023-02-15T06:30:00;4.40;99.90
24085;DHT22;12268;52.110;5.548;2023-02-15T06:32:26;4.40;99.90
24085;DHT22;12268;52.110;5.548;2023-02-15T06:34:51;4.40;99.90
24085;DHT22;12268;52.110;5.548;2023-02-15T06:37:17;4.30;99.90
24085;DHT22;12268;52.110;5.548;2023-02-15T06:39:42;4.40;99.90
24085;DHT22;12268;52.110;5.548;2023-02-15T06:42:09;4.40;99.90
24085;DHT22;12268;52.110;5.548;2023-02-15T06:44:34;4.50;99.90
24085;DHT22;12268;52.110;5.548;2023-02-15T06:47:00;4.60;99.90
24085;DHT22;12268;52.110;5.548;2023-02-15T06:49:25;4.40;99.90
24085;DHT22;12268;52.110;5.548;2023-02-15T06:51:51;4.30;99.90
24085;DHT22;12268;52.110;5.548;2023-02-15T06:54:16;4.40;99.90
24085;DHT22;12268;52.110;5.548;2023-02-15T06:56:42;4.40;99.90
24085;DHT22;12268;52.110;5.548;2023-02-15T06:59:08;4.50;99.90
24085;DHT22;12268;52.110;5.548;2023-02-15T07:01:34;4.60;99.90
24085;DHT22;12268;52.110;5.548;2023-02-15T07:04:02;4.70;99.90
24085;DHT22;12268;52.110;5.548;2023-02-15T07:06:30;4.60;99.90
24085;DHT22;12268;52.110;5.548;2023-02-15T07:08:56;4.60;99.90
24085;DHT22;12268;52.110;5.548;2023-02-15T07:11:21;4.70;99.90
24085;DHT22;12268;52.110;5.548;2023-02-15T07:14:05;4.70;99.90
24085;DHT22;12268;52.110;5.548;2023-02-15T07:16:31;4.70;99.90
24085;DHT22;12268;52.110;5.548;2023-02-15T07:18:56;4.80;99.90
24085;DHT22;12268;52.110;5.548;2023-02-15T07:21:21;5.00;99.90
24085;DHT22;12268;52.110;5.548;2023-02-15T07:23:47;5.00;99.90
24085;DHT22;12268;52.110;5.548;2023-02-15T07:26:12;5.10;99.90
24085;DHT22;12268;52.110;5.548;2023-02-15T07:28:38;5.20;99.90
24085;DHT22;12268;52.110;5.548;2023-02-15T07:31:04;5.20;99.90
24085;DHT22;12268;52.110;5.548;2023-02-15T07:33:30;5.10;99.90
24085;DHT22;12268;52.110;5.548;2023-02-15T07:35:57;5.20;99.90
24085;DHT22;12268;52.110;5.548;2023-02-15T07:38:31;5.30;99.90
24085;DHT22;12268;52.110;5.548;2023-02-15T07:40:57;5.40;99.90
24085;DHT22;12268;52.110;5.548;2023-02-15T07:43:23;5.50;99.90
24085;DHT22;12268;52.110;5.548;2023-02-15T07:45:48;5.40;99.90
24085;DHT22;12268;52.110;5.548;2023-02-15T07:48:14;5.40;99.90
24085;DHT22;12268;52.110;5.548;2023-02-15T07:50:39;5.40;99.90
24085;DHT22;12268;52.110;5.548;2023-02-15T07:53:05;5.30;99.90
24085;DHT22;12268;52.110;5.548;2023-02-15T07:55:30;5.50;99.90
24085;DHT22;12268;52.110;5.548;2023-02-15T07:57:55;5.50;99.90
24085;DHT22;12268;52.110;5.548;2023-02-15T08:00:21;5.40;99.90
24085;DHT22;12268;52.110;5.548;2023-02-15T08:02:55;5.60;99.90
24085;DHT22;12268;52.110;5.548;2023-02-15T08:05:39;5.80;99.90
24085;DHT22;12268;52.110;5.548;2023-02-15T08:08:05;5.90;99.90
24085;DHT22;12268;52.110;5.548;2023-02-15T08:10:31;5.80;99.90
24085;DHT22;12268;52.110;5.548;2023-02-15T08:13:15;6.00;99.90
24085;DHT22;12268;52.110;5.548;2023-02-15T08:15:47;6.20;99.90
24085;DHT22;12268;52.110;5.548;2023-02-15T08:18:13;6.30;99.90
24085;DHT22;12268;52.110;5.548;2023-02-15T08:20:38;6.20;99.90
24085;DHT22;12268;52.110;5.548;2023-02-15T08:23:04;6.20;99.90
24085;DHT22;12268;52.110;5.548;2023-02-15T08:25:29;6.40;99.90
24085;DHT22;12268;52.110;5.548;2023-02-15T08:27:54;6.70;99.90
24085;DHT22;12268;52.110;5.548;2023-02-15T08:30:20;6.70;99.90
24085;DHT22;12268;52.110;5.548;2023-02-15T08:32:45;6.80;99.90
24085;DHT22;12268;52.110;5.548;2023-02-15T08:35:11;6.90;99.90
24085;DHT22;12268;52.110;5.548;2023-02-15T08:37:37;7.10;99.90
24085;DHT22;12268;52.110;5.548;2023-02-15T08:40:02;7.30;99.90
24085;DHT22;12268;52.110;5.548;2023-02-15T08:42:28;7.60;99.90
24085;DHT22;12268;52.110;5.548;2023-02-15T08:44:53;7.30;99.90
24085;DHT22;12268;52.110;5.548;2023-02-15T08:47:19;7.30;99.90
24085;DHT22;12268;52.110;5.548;2023-02-15T08:49:44;7.40;99.90
24085;DHT22;12268;52.110;5.548;2023-02-15T08:52:09;7.30;99.90
24085;DHT22;12268;52.110;5.548;2023-02-15T08:54:35;7.50;99.90
24085;DHT22;12268;52.110;5.548;2023-02-15T08:57:00;7.70;99.90
24085;DHT22;12268;52.110;5.548;2023-02-15T08:59:26;8.10;99.90
24085;DHT22;12268;52.110;5.548;2023-02-15T09:01:52;8.20;99.90
24085;DHT22;12268;52.110;5.548;2023-02-15T09:04:18;8.40;99.90
24085;DHT22;12268;52.110;5.548;2023-02-15T09:06:44;8.80;99.90
24085;DHT22;12268;52.110;5.548;2023-02-15T09:09:10;9.00;99.90
24085;DHT22;12268;52.110;5.548;2023-02-15T09:11:36;9.20;99.90
24085;DHT22;12268;52.110;5.548;2023-02-15T09:14:07;9.50;99.90
24085;DHT22;12268;52.110;5.548;2023-02-15T09:16:34;9.50;99.90
24085;DHT22;12268;52.110;5.548;2023-02-15T09:19:00;9.80;99.90
24085;DHT22;12268;52.110;5.548;2023-02-15T09:21:26;9.90;99.90
24085;DHT22;12268;52.110;5.548;2023-02-15T09:23:55;9.90;99.90
24085;DHT22;12268;52.110;5.548;2023-02-15T09:26:21;9.90;99.90
24085;DHT22;12268;52.110;5.548;2023-02-15T09:28:47;10.20;99.90
24085;DHT22;12268;52.110;5.548;2023-02-15T09:31:15;10.20;99.90
24085;DHT22;12268;52.110;5.548;2023-02-15T09:33:41;10.40;99.90
24085;DHT22;12268;52.110;5.548;2023-02-15T09:36:14;10.60;99.90
24085;DHT22;12268;52.110;5.548;2023-02-15T09:38:40;10.90;99.90
24085;DHT22;12268;52.110;5.548;2023-02-15T09:43:49;10.80;99.90
24085;DHT22;12268;52.110;5.548;2023-02-15T09:46:30;11.50;99.90
24085;DHT22;12268;52.110;5.548;2023-02-15T09:49:11;11.80;99.90
24085;DHT22;12268;52.110;5.548;2023-02-15T09:54:16;12.50;99.90
24085;DHT22;12268;52.110;5.548;2023-02-15T09:56:48;12.70;99.90
24085;DHT22;12268;52.110;5.548;2023-02-15T10:02:14;14.00;99.90
24085;DHT22;12268;52.110;5.548;2023-02-15T10:04:57;14.30;99.90
24085;DHT22;12268;52.110;5.548;2023-02-15T10:15:15;14.60;99.90
24085;DHT22;12268;52.110;5.548;2023-02-15T10:20:20;14.20;99.90
24085;DHT22;12268;52.110;5.548;2023-02-15T10:25:39;14.90;99.90
24085;DHT22;12268;52.110;5.548;2023-02-15T10:28:15;15.20;99.90
24085;DHT22;12268;52.110;5.548;2023-02-15T10:30:52;15.50;99.90
24085;DHT22;12268;52.110;5.548;2023-02-15T10:35:53;16.00;99.90
24085;DHT22;12268;52.110;5.548;2023-02-15T10:38:35;16.00;99.90
24085;DHT22;12268;52.110;5.548;2023-02-15T10:46:11;16.80;99.90
24085;DHT22;12268;52.110;5.548;2023-02-15T10:48:46;16.70;99.90
24085;DHT22;12268;52.110;5.548;2023-02-15T10:51:24;16.20;99.90
24085;DHT22;12268;52.110;5.548;2023-02-15T10:59:25;15.40;99.90
24085;DHT22;12268;52.110;5.548;2023-02-15T11:02:04;15.70;99.90
24085;DHT22;12268;52.110;5.548;2023-02-15T11:04:37;16.10;99.90
24085;DHT22;12268;52.110;5.548;2023-02-15T13:16:33;15.20;99.90
24085;DHT22;12268;52.110;5.548;2023-02-15T13:19:04;15.30;99.90
24085;DHT22;12268;52.110;5.548;2023-02-15T13:21:35;15.40;99.90
24085;DHT22;12268;52.110;5.548;2023-02-15T13:24:06;15.70;99.90
24085;DHT22;12268;52.110;5.548;2023-02-15T13:26:32;15.80;99.90
24085;DHT22;12268;52.110;5.548;2023-02-15T13:29:01;15.90;99.90
24085;DHT22;12268;52.110;5.548;2023-02-15T13:31:30;15.80;99.90
24085;DHT22;12268;52.110;5.548;2023-02-15T13:33:59;15.90;99.90
24085;DHT22;12268;52.110;5.548;2023-02-15T14:41:04;16.80;99.90
24085;DHT22;12268;52.110;5.548;2023-02-15T14:46:19;16.90;99.90
24085;DHT22;12268;52.110;5.548;2023-02-15T14:48:47;17.00;99.90
24085;DHT22;12268;52.110;5.548;2023-02-15T14:53:58;17.20;99.90
24085;DHT22;12268;52.110;5.548;2023-02-15T15:01:37;17.10;99.90
24085;DHT22;12268;52.110;5.548;2023-02-15T15:04:07;16.70;99.90
24085;DHT22;12268;52.110;5.548;2023-02-15T15:06:34;16.30;99.90
24085;DHT22;12268;52.110;5.548;2023-02-15T15:09:14;15.70;99.90
24085;DHT22;12268;52.110;5.548;2023-02-15T15:17:00;15.20;99.90
24085;DHT22;12268;52.110;5.548;2023-02-15T15:22:18;15.00;99.90
24085;DHT22;12268;52.110;5.548;2023-02-15T15:32:40;15.40;99.90
24085;DHT22;12268;52.110;5.548;2023-02-15T15:35:14;15.30;99.90
24085;DHT22;12268;52.110;5.548;2023-02-15T15:40:28;15.50;99.90
24085;DHT22;12268;52.110;5.548;2023-02-15T15:48:00;15.10;99.90
24085;DHT22;12268;52.110;5.548;2023-02-15T15:50:32;15.30;99.90
24085;DHT22;12268;52.110;5.548;2023-02-15T15:52:58;15.30;99.90
24085;DHT22;12268;52.110;5.548;2023-02-15T15:55:25;15.30;99.90
24085;DHT22;12268;52.110;5.548;2023-02-15T15:57:55;15.40;99.90
24085;DHT22;12268;52.110;5.548;2023-02-15T16:00:24;15.20;99.90
24085;DHT22;12268;52.110;5.548;2023-02-15T16:02:52;15.00;99.90
24085;DHT22;12268;52.110;5.548;2023-02-15T16:05:17;14.90;99.90
24085;DHT22;12268;52.110;5.548;2023-02-15T16:07:43;15.00;99.90
24085;DHT22;12268;52.110;5.548;2023-02-15T16:10:19;14.90;99.90
24085;DHT22;12268;52.110;5.548;2023-02-15T16:12:45;14.90;99.90
24085;DHT22;12268;52.110;5.548;2023-02-15T16:15:24;14.90;99.90
24085;DHT22;12268;52.110;5.548;2023-02-15T16:17:51;14.80;99.90
24085;DHT22;12268;52.110;5.548;2023-02-15T16:20:30;14.70;99.90
24085;DHT22;12268;52.110;5.548;2023-02-15T16:25:46;14.50;99.90
24085;DHT22;12268;52.110;5.548;2023-02-15T16:28:17;14.40;99.90
24085;DHT22;12268;52.110;5.548;2023-02-15T16:30:44;14.30;99.90
24085;DHT22;12268;52.110;5.548;2023-02-15T16:33:10;14.20;99.90
24085;DHT22;12268;52.110;5.548;2023-02-15T16:35:37;14.30;99.90
24085;DHT22;12268;52.110;5.548;2023-02-15T16:38:02;14.20;99.90
24085;DHT22;12268;52.110;5.548;2023-02-15T16:40:34;14.10;99.90
24085;DHT22;12268;52.110;5.548;2023-02-15T16:43:01;13.90;99.90
24085;DHT22;12268;52.110;5.548;2023-02-15T16:45:27;13.60;99.90
24085;DHT22;12268;52.110;5.548;2023-02-15T16:47:57;13.40;99.90
24085;DHT22;12268;52.110;5.548;2023-02-15T16:50:27;13.40;99.90
24085;DHT22;12268;52.110;5.548;2023-02-15T16:52:55;13.30;99.90
24085;DHT22;12268;52.110;5.548;2023-02-15T16:55:22;13.30;99.90
24085;DHT22;12268;52.110;5.548;2023-02-15T16:57:48;13.10;99.90
24085;DHT22;12268;52.110;5.548;2023-02-15T17:00:24;13.10;99.90
24085;DHT22;12268;52.110;5.548;2023-02-15T17:02:55;13.00;99.90
24085;DHT22;12268;52.110;5.548;2023-02-15T17:05:23;13.00;99.90
24085;DHT22;12268;52.110;5.548;2023-02-15T17:07:50;12.90;99.90
24085;DHT22;12268;52.110;5.548;2023-02-15T17:10:26;12.70;99.90
24085;DHT22;12268;52.110;5.548;2023-02-15T17:12:53;12.70;99.90
24085;DHT22;12268;52.110;5.548;2023-02-15T17:15:30;12.70;99.90
24085;DHT22;12268;52.110;5.548;2023-02-15T17:17:57;12.60;99.90
24085;DHT22;12268;52.110;5.548;2023-02-15T17:20:23;12.60;99.90
24085;DHT22;12268;52.110;5.548;2023-02-15T17:22:50;12.50;99.90
24085;DHT22;12268;52.110;5.548;2023-02-15T17:25:20;12.40;99.90
24085;DHT22;12268;52.110;5.548;2023-02-15T17:27:50;12.60;99.90
24085;DHT22;12268;52.110;5.548;2023-02-15T17:30:17;12.50;99.90
24085;DHT22;12268;52.110;5.548;2023-02-15T17:32:54;12.50;99.90
24085;DHT22;12268;52.110;5.548;2023-02-15T17:35:21;12.40;99.90
24085;DHT22;12268;52.110;5.548;2023-02-15T17:37:47;12.30;99.90
24085;DHT22;12268;52.110;5.548;2023-02-15T17:40:21;12.10;99.90
24085;DHT22;12268;52.110;5.548;2023-02-15T17:42:47;11.90;99.90
24085;DHT22;12268;52.110;5.548;2023-02-15T17:45:13;11.70;99.90
24085;DHT22;12268;52.110;5.548;2023-02-15T17:47:38;11.80;99.90
24085;DHT22;12268;52.110;5.548;2023-02-15T17:50:06;11.80;99.90
24085;DHT22;12268;52.110;5.548;2023-02-15T17:52:33;11.70;99.90
24085;DHT22;12268;52.110;5.548;2023-02-15T17:55:01;11.60;99.90
24085;DHT22;12268;52.110;5.548;2023-02-15T17:57:49;11.70;99.90
24085;DHT22;12268;52.110;5.548;2023-02-15T18:00:14;11.50;99.90
24085;DHT22;12268;52.110;5.548;2023-02-15T18:02:58;11.70;99.90
24085;DHT22;12268;52.110;5.548;2023-02-15T18:05:42;11.60;99.90
24085;DHT22;12268;52.110;5.548;2023-02-15T18:08:27;11.40;99.90
24085;DHT22;12268;52.110;5.548;2023-02-15T18:11:11;11.40;99.90
24085;DHT22;12268;52.110;5.548;2023-02-15T18:13:55;11.50;99.90
24085;DHT22;12268;52.110;5.548;2023-02-15T18:16:26;11.50;99.90
24085;DHT22;12268;52.110;5.548;2023-02-15T18:18:52;11.50;99.90
24085;DHT22;12268;52.110;5.548;2023-02-15T18:21:18;11.60;99.90
24085;DHT22;12268;52.110;5.548;2023-02-15T18:23:44;11.70;99.90
24085;DHT22;12268;52.110;5.548;2023-02-15T18:26:11;11.70;99.90
24085;DHT22;12268;52.110;5.548;2023-02-15T18:28:40;11.60;99.90
24085;DHT22;12268;52.110;5.548;2023-02-15T18:31:05;11.70;99.90
24085;DHT22;12268;52.110;5.548;2023-02-15T18:33:38;11.60;99.90
24085;DHT22;12268;52.110;5.548;2023-02-15T18:36:05;11.50;99.90
24085;DHT22;12268;52.110;5.548;2023-02-15T18:38:31;11.30;99.90
24085;DHT22;12268;52.110;5.548;2023-02-15T18:40:57;11.20;99.90
24085;DHT22;12268;52.110;5.548;2023-02-15T18:43:22;11.20;99.90
24085;DHT22;12268;52.110;5.548;2023-02-15T18:45:48;11.00;99.90
24085;DHT22;12268;52.110;5.548;2023-02-15T18:48:13;10.90;99.90
24085;DHT22;12268;52.110;5.548;2023-02-15T18:50:39;11.10;99.90
24085;DHT22;12268;52.110;5.548;2023-02-15T18:53:05;11.30;99.90
24085;DHT22;12268;52.110;5.548;2023-02-15T18:55:31;11.30;99.90
24085;DHT22;12268;52.110;5.548;2023-02-15T18:57:57;11.10;99.90
24085;DHT22;12268;52.110;5.548;2023-02-15T19:00:27;11.20;99.90
24085;DHT22;12268;52.110;5.548;2023-02-15T19:02:53;11.00;99.90
24085;DHT22;12268;52.110;5.548;2023-02-15T19:05:19;10.90;99.90
24085;DHT22;12268;52.110;5.548;2023-02-15T19:07:45;10.90;99.90
24085;DHT22;12268;52.110;5.548;2023-02-15T19:10:20;10.90;99.90
24085;DHT22;12268;52.110;5.548;2023-02-15T19:12:46;11.00;99.90
24085;DHT22;12268;52.110;5.548;2023-02-15T19:15:16;10.90;99.90
24085;DHT22;12268;52.110;5.548;2023-02-15T19:17:41;10.90;99.90
24085;DHT22;12268;52.110;5.548;2023-02-15T19:20:10;11.00;99.90
24085;DHT22;12268;52.110;5.548;2023-02-15T19:22:39;10.90;99.90
24085;DHT22;12268;52.110;5.548;2023-02-15T19:25:04;10.70;99.90
24085;DHT22;12268;52.110;5.548;2023-02-15T19:27:34;10.70;99.90
24085;DHT22;12268;52.110;5.548;2023-02-15T19:30:00;10.80;99.90
24085;DHT22;12268;52.110;5.548;2023-02-15T19:32:28;10.90;99.90
24085;DHT22;12268;52.110;5.548;2023-02-15T19:34:55;10.90;99.90
24085;DHT22;12268;52.110;5.548;2023-02-15T19:37:33;10.90;99.90
24085;DHT22;12268;52.110;5.548;2023-02-15T19:40:01;11.00;99.90
24085;DHT22;12268;52.110;5.548;2023-02-15T19:42:27;11.00;99.90
24085;DHT22;12268;52.110;5.548;2023-02-15T19:44:53;11.00;99.90
24085;DHT22;12268;52.110;5.548;2023-02-15T19:47:18;11.20;99.90
24085;DHT22;12268;52.110;5.548;2023-02-15T19:49:44;11.00;99.90
24085;DHT22;12268;52.110;5.548;2023-02-15T19:52:14;11.00;99.90
24085;DHT22;12268;52.110;5.548;2023-02-15T19:54:41;11.00;99.90
24085;DHT22;12268;52.110;5.548;2023-02-15T19:57:09;10.90;99.90
24085;DHT22;12268;52.110;5.548;2023-02-15T19:59:35;10.90;99.90
24085;DHT22;12268;52.110;5.548;2023-02-15T20:02:00;11.00;99.90
24085;DHT22;12268;52.110;5.548;2023-02-15T20:04:26;10.90;99.90
24085;DHT22;12268;52.110;5.548;2023-02-15T20:06:52;10.70;99.90
24085;DHT22;12268;52.110;5.548;2023-02-15T20:09:25;10.70;99.90
24085;DHT22;12268;52.110;5.548;2023-02-15T20:11:52;10.50;99.90
24085;DHT22;12268;52.110;5.548;2023-02-15T20:14:18;10.50;99.90
24085;DHT22;12268;52.110;5.548;2023-02-15T20:16:44;10.40;99.90
24085;DHT22;12268;52.110;5.548;2023-02-15T20:19:10;10.20;99.90
24085;DHT22;12268;52.110;5.548;2023-02-15T20:21:37;10.20;99.90
24085;DHT22;12268;52.110;5.548;2023-02-15T20:24:03;10.10;99.90
24085;DHT22;12268;52.110;5.548;2023-02-15T20:26:28;10.10;99.90
24085;DHT22;12268;52.110;5.548;2023-02-15T20:28:55;10.00;99.90
24085;DHT22;12268;52.110;5.548;2023-02-15T20:31:21;9.90;99.90
24085;DHT22;12268;52.110;5.548;2023-02-15T20:33:47;9.90;99.90
24085;DHT22;12268;52.110;5.548;2023-02-15T20:36:13;9.90;99.90
24085;DHT22;12268;52.110;5.548;2023-02-15T20:38:39;10.00;99.90